Time;durP1;ratioP1;P1;durP2;ratioP2;P2;SDS_P1;SDS_P2;PMS_P1;PMS_P2;Temp;Humidity;BMP_temperature;BMP_pressure;BME280_temperature;BME280_humidity;BME280_pressure;Samples;Min_cycle;Max_cycle;Signal;HPM_P1;HPM_P2
2023/05/10 00:00:37;;;;;;;6.23;4.37;;;12.10;62.10;;;;;;5221149;28;20191;-48
2023/05/10 00:03:07;;;;;;;7.10;4.80;;;12.10;62.60;;;;;;5222007;28;20199;-49
2023/05/10 00:05:38;;;;;;;5.10;4.70;;;12.10;63.10;;;;;;5218114;28;20187;-48
2023/05/10 00:08:09;;;;;;;5.80;4.80;;;12.00;63.80;;;;;;5223355;28;20187;-48
2023/05/10 00:10:40;;;;;;;8.10;5.00;;;12.00;64.50;;;;;;5222172;28;20237;-53
2023/05/10 00:13:11;;;;;;;6.37;4.70;;;12.00;65.20;;;;;;5222794;28;20529;-48
2023/05/10 00:15:42;;;;;;;10.90;4.60;;;12.00;65.30;;;;;;5223625;28;20433;-49
2023/05/10 00:18:12;;;;;;;7.53;5.10;;;12.00;66.00;;;;;;5222613;28;20207;-50
2023/05/10 00:20:45;;;;;;;4.33;3.93;;;11.90;66.30;;;;;;5222219;28;20698;-47
2023/05/10 00:23:16;;;;;;;6.13;4.70;;;11.90;66.80;;;;;;5219856;28;20190;-49
2023/05/10 00:25:46;;;;;;;7.90;5.10;;;11.80;67.70;;;;;;5220304;28;20794;-49
2023/05/10 00:28:17;;;;;;;10.20;5.03;;;11.80;68.00;;;;;;5224516;28;20650;-48
2023/05/10 00:30:48;;;;;;;5.40;4.40;;;11.80;68.50;;;;;;5222161;28;20210;-48
2023/05/10 00:33:18;;;;;;;5.03;4.70;;;11.70;69.10;;;;;;5220528;28;20213;-48
2023/05/10 00:35:49;;;;;;;4.87;4.40;;;11.70;69.50;;;;;;5218100;28;20191;-52
2023/05/10 00:38:20;;;;;;;4.00;3.50;;;11.70;70.10;;;;;;5216464;28;20619;-51
2023/05/10 00:40:50;;;;;;;4.80;4.50;;;11.70;70.80;;;;;;5221700;28;20194;-49
2023/05/10 00:43:21;;;;;;;4.87;4.43;;;11.60;71.40;;;;;;5221464;28;20651;-48
2023/05/10 00:45:52;;;;;;;8.13;4.77;;;11.60;72.10;;;;;;5215402;28;20183;-49
2023/05/10 00:48:23;;;;;;;4.67;4.27;;;11.50;72.70;;;;;;5219848;28;20183;-49
2023/05/10 00:50:54;;;;;;;6.77;4.43;;;11.60;73.40;;;;;;5218743;28;20473;-49
2023/05/10 00:53:25;;;;;;;5.10;4.60;;;11.50;74.00;;;;;;5221173;28;20448;-49
2023/05/10 00:55:56;;;;;;;9.30;4.13;;;11.50;74.40;;;;;;5221806;28;20557;-49
2023/05/10 00:58:28;;;;;;;9.07;4.33;;;11.50;75.00;;;;;;5217805;28;20489;-48
2023/05/10 01:00:59;;;;;;;8.77;4.80;;;11.40;76.00;;;;;;5215466;28;20572;-47
2023/05/10 01:03:30;;;;;;;5.40;4.67;;;11.40;76.60;;;;;;5220854;28;20504;-51
2023/05/10 01:06:01;;;;;;;4.23;4.03;;;11.30;77.60;;;;;;5217534;28;20441;-49
2023/05/10 01:08:32;;;;;;;7.40;4.43;;;11.30;78.30;;;;;;5217932;28;20466;-50
2023/05/10 01:11:02;;;;;;;8.50;3.90;;;11.30;79.40;;;;;;5221483;28;20607;-49
2023/05/10 01:13:39;;;;;;;5.07;4.60;;;11.20;80.60;;;;;;5217304;28;20452;-50
2023/05/10 01:16:09;;;;;;;5.07;4.70;;;11.10;81.80;;;;;;5215267;28;20190;-47
2023/05/10 01:18:41;;;;;;;6.53;4.93;;;11.10;82.80;;;;;;5219352;28;20441;-49
2023/05/10 01:21:42;;;;;;;11.90;4.93;;;11.10;84.10;;;;;;5215413;28;20252;-48
2023/05/10 01:24:16;;;;;;;9.73;4.83;;;11.10;85.50;;;;;;5222882;28;20437;-47
2023/05/10 01:27:25;;;;;;;5.10;4.70;;;11.00;86.30;;;;;;5216844;28;20849;-48
2023/05/10 01:30:12;;;;;;;7.27;4.63;;;11.00;88.20;;;;;;5216668;28;20485;-50
2023/05/10 01:33:11;;;;;;;5.53;5.00;;;10.90;89.00;;;;;;5215809;28;20445;-48
2023/05/10 01:36:08;;;;;;;7.33;4.63;;;10.90;90.00;;;;;;5217098;28;20796;-47
2023/05/10 01:38:52;;;;;;;7.60;4.57;;;10.80;90.40;;;;;;5214889;28;20469;-47
2023/05/10 01:41:47;;;;;;;4.70;4.27;;;10.80;91.20;;;;;;5215331;28;20527;-50
2023/05/10 01:44:37;;;;;;;4.80;4.27;;;10.80;91.40;;;;;;5217339;28;20530;-48
2023/05/10 01:47:12;;;;;;;4.70;4.23;;;10.80;91.80;;;;;;5216597;28;20806;-47
2023/05/10 01:49:51;;;;;;;5.63;5.13;;;10.70;92.20;;;;;;5217116;28;20511;-49
2023/05/10 01:52:36;;;;;;;8.73;4.50;;;10.70;92.60;;;;;;5218924;28;20448;-48
2023/05/10 01:55:11;;;;;;;5.50;4.97;;;10.70;92.80;;;;;;5218045;28;20487;-48
2023/05/10 01:57:46;;;;;;;4.43;4.13;;;10.70;93.20;;;;;;5219740;28;20994;-49
2023/05/10 02:00:19;;;;;;;6.93;4.80;;;10.70;93.40;;;;;;5218460;28;20475;-48
2023/05/10 02:02:50;;;;;;;5.77;4.73;;;10.60;93.90;;;;;;5222633;28;20882;-52
2023/05/10 02:05:22;;;;;;;4.70;4.30;;;10.60;94.50;;;;;;5222267;28;20443;-49
2023/05/10 02:07:54;;;;;;;18.53;5.10;;;10.50;94.80;;;;;;5222138;28;20495;-47
2023/05/10 02:10:25;;;;;;;5.23;4.63;;;10.50;95.30;;;;;;5222072;28;20499;-49
2023/05/10 02:12:59;;;;;;;9.00;4.10;;;10.40;95.70;;;;;;5223196;28;20452;-48
2023/05/10 02:15:31;;;;;;;9.60;4.90;;;10.40;96.10;;;;;;5224343;28;20844;-48
2023/05/10 02:18:03;;;;;;;4.90;4.57;;;10.30;96.40;;;;;;5222806;28;20518;-52
2023/05/10 02:20:35;;;;;;;4.50;4.10;;;10.30;96.70;;;;;;5207017;28;20456;-50
2023/05/10 02:23:08;;;;;;;4.97;4.47;;;10.30;97.00;;;;;;5223926;28;20475;-49
2023/05/10 02:25:40;;;;;;;5.70;4.80;;;10.30;97.10;;;;;;5220310;28;20494;-48
2023/05/10 02:28:12;;;;;;;5.03;4.53;;;10.30;97.50;;;;;;5222534;28;20449;-51
2023/05/10 02:30:43;;;;;;;9.17;4.80;;;10.20;97.40;;;;;;5224274;28;20975;-48
2023/05/10 02:33:14;;;;;;;5.10;3.70;;;10.20;97.60;;;;;;5223285;28;20529;-48
2023/05/10 02:35:46;;;;;;;5.10;4.70;;;10.20;97.80;;;;;;5219198;28;20440;-49
2023/05/10 02:38:20;;;;;;;6.87;4.83;;;10.20;98.00;;;;;;5217870;28;20464;-48
2023/05/10 02:40:52;;;;;;;5.70;4.37;;;10.20;98.10;;;;;;5219132;28;20495;-47
2023/05/10 02:43:24;;;;;;;4.40;4.00;;;10.10;98.20;;;;;;5222817;28;20452;-48
2023/05/10 02:45:55;;;;;;;5.87;3.97;;;10.10;98.40;;;;;;5220143;28;20488;-48
2023/05/10 02:48:26;;;;;;;6.60;4.03;;;10.10;98.30;;;;;;5220732;28;20471;-47
2023/05/10 02:51:07;;;;;;;7.30;4.70;;;10.10;98.50;;;;;;5220924;28;20275;-48
2023/05/10 02:53:42;;;;;;;10.53;4.27;;;10.10;98.50;;;;;;5223033;28;20210;-47
2023/05/10 02:56:20;;;;;;;5.33;4.33;;;10.10;98.80;;;;;;5222491;28;20437;-48
2023/05/10 02:58:52;;;;;;;7.80;4.57;;;10.00;98.80;;;;;;5207082;28;20527;-46
2023/05/10 03:01:23;;;;;;;5.10;3.40;;;10.00;98.80;;;;;;5221823;28;20495;-47
2023/05/10 03:03:53;;;;;;;9.27;3.73;;;10.10;99.00;;;;;;5225398;28;20972;-47
2023/05/10 03:06:24;;;;;;;10.40;4.80;;;10.00;99.20;;;;;;5220861;28;20470;-51
2023/05/10 03:08:56;;;;;;;8.20;5.17;;;9.90;99.80;;;;;;5223876;28;20577;-47
2023/05/10 03:11:54;;;;;;;17.13;3.90;;;9.90;99.80;;;;;;5218874;28;20454;-48
2023/05/10 03:14:48;;;;;;;10.97;4.20;;;9.90;99.90;;;;;;5222101;28;20474;-48
2023/05/10 03:17:39;;;;;;;4.50;4.20;;;9.90;99.90;;;;;;5218183;28;21002;-50
2023/05/10 03:20:12;;;;;;;8.33;3.50;;;9.90;99.90;;;;;;5222560;28;20453;-48
2023/05/10 03:22:51;;;;;;;8.37;3.80;;;9.90;99.90;;;;;;5222069;28;20431;-48
2023/05/10 03:25:22;;;;;;;8.27;3.93;;;9.80;99.90;;;;;;5226886;28;20433;-48
2023/05/10 03:27:54;;;;;;;7.23;4.07;;;9.80;99.90;;;;;;5225584;28;20448;-48
2023/05/10 03:30:25;;;;;;;8.73;4.20;;;9.80;99.90;;;;;;5220343;28;20995;-48
2023/05/10 03:32:56;;;;;;;7.33;4.50;;;9.80;99.90;;;;;;5207441;28;20457;-49
2023/05/10 03:35:27;;;;;;;6.57;4.30;;;9.80;99.90;;;;;;5222985;28;20841;-49
2023/05/10 03:37:58;;;;;;;5.63;4.03;;;9.80;99.90;;;;;;5219060;28;20670;-48
2023/05/10 03:40:31;;;;;;;4.63;4.23;;;9.80;99.90;;;;;;5222942;28;20586;-49
2023/05/10 03:43:01;;;;;;;4.43;3.60;;;9.80;99.90;;;;;;5211499;28;20191;-50
2023/05/10 03:45:32;;;;;;;4.87;4.17;;;9.80;99.90;;;;;;5217710;28;20508;-50
2023/05/10 03:48:03;;;;;;;6.33;4.10;;;9.80;99.90;;;;;;5219110;28;20204;-51
2023/05/10 03:50:33;;;;;;;7.27;4.57;;;9.80;99.90;;;;;;5224246;28;20218;-49
2023/05/10 03:53:04;;;;;;;5.50;3.87;;;9.80;99.90;;;;;;5224922;28;20479;-48
2023/05/10 03:55:36;;;;;;;4.33;3.97;;;9.80;99.90;;;;;;5218430;28;20183;-47
2023/05/10 03:58:06;;;;;;;9.20;4.30;;;9.80;99.90;;;;;;5220123;28;20281;-49
2023/05/10 04:00:43;;;;;;;3.90;3.50;;;9.80;99.90;;;;;;5214863;28;20488;-52
2023/05/10 04:03:14;;;;;;;6.30;3.90;;;9.80;99.90;;;;;;5216925;28;20647;-50
2023/05/10 04:05:44;;;;;;;7.43;4.00;;;9.90;99.90;;;;;;5221183;28;20444;-52
2023/05/10 04:08:16;;;;;;;6.20;4.33;;;9.90;99.90;;;;;;5220023;28;20763;-49
2023/05/10 04:10:46;;;;;;;4.20;3.80;;;9.90;99.90;;;;;;5219872;28;20195;-47
2023/05/10 04:13:17;;;;;;;8.60;4.03;;;9.90;99.90;;;;;;5221396;28;20447;-48
2023/05/10 04:15:47;;;;;;;3.80;3.50;;;10.00;99.90;;;;;;5222387;28;20182;-48
2023/05/10 04:18:18;;;;;;;7.67;4.00;;;10.00;99.90;;;;;;5224282;28;20614;-47
2023/05/10 04:20:49;;;;;;;10.37;3.90;;;10.00;99.60;;;;;;5216173;28;20210;-48
2023/05/10 04:23:19;;;;;;;6.10;3.90;;;10.00;99.40;;;;;;5221717;28;20210;-49
2023/05/10 04:25:50;;;;;;;5.07;3.73;;;10.00;99.30;;;;;;5220128;28;20229;-50
2023/05/10 04:28:21;;;;;;;7.20;3.87;;;10.10;99.00;;;;;;5220036;28;20602;-49
2023/05/10 04:30:52;;;;;;;7.07;4.70;;;10.20;99.30;;;;;;5218672;28;20202;-49
2023/05/10 04:33:22;;;;;;;4.60;3.90;;;10.20;98.90;;;;;;5219814;28;20442;-48
2023/05/10 04:35:53;;;;;;;3.93;3.63;;;10.20;98.70;;;;;;5220106;28;20192;-49
2023/05/10 04:38:24;;;;;;;4.90;4.10;;;10.30;98.40;;;;;;5213075;28;20215;-51
2023/05/10 04:41:03;;;;;;;8.70;3.90;;;10.40;98.00;;;;;;5208591;28;20286;-48
2023/05/10 04:43:34;;;;;;;6.03;3.27;;;10.60;97.50;;;;;;5220823;28;20949;-49
2023/05/10 04:46:08;;;;;;;3.93;3.60;;;10.80;96.90;;;;;;5221496;28;20433;-49
2023/05/10 04:48:39;;;;;;;4.97;3.03;;;11.20;96.50;;;;;;5221250;28;20469;-49
2023/05/10 04:51:09;;;;;;;4.07;3.70;;;11.90;93.40;;;;;;5222615;28;20505;-49
2023/05/10 04:53:40;;;;;;;7.70;3.67;;;12.50;90.60;;;;;;5222282;28;20209;-49
2023/05/10 04:56:10;;;;;;;3.87;3.50;;;13.00;86.70;;;;;;5222810;28;20183;-50
2023/05/10 04:58:41;;;;;;;7.17;4.20;;;13.50;79.80;;;;;;5221617;28;20171;-49
2023/05/10 05:01:12;;;;;;;4.40;4.00;;;14.10;75.60;;;;;;5221668;28;20195;-50
2023/05/10 05:03:42;;;;;;;3.60;3.23;;;14.50;70.20;;;;;;5205494;28;20218;-49
2023/05/10 05:06:13;;;;;;;3.67;3.47;;;14.70;66.70;;;;;;5221565;28;20187;-51
2023/05/10 05:08:44;;;;;;;5.60;3.97;;;14.80;65.40;;;;;;5221399;28;20346;-48
2023/05/10 05:11:14;;;;;;;4.00;3.70;;;14.80;64.50;;;;;;5222367;28;20743;-50
2023/05/10 05:13:45;;;;;;;2.90;2.70;;;15.50;61.70;;;;;;5221043;28;20171;-50
2023/05/10 05:16:16;;;;;;;3.77;3.47;;;15.90;59.10;;;;;;5222361;28;20227;-51
2023/05/10 05:18:46;;;;;;;3.67;3.40;;;16.50;56.90;;;;;;5218276;28;20281;-51
2023/05/10 05:21:18;;;;;;;8.07;2.93;;;17.10;54.60;;;;;;5221252;28;20483;-50
2023/05/10 05:23:50;;;;;;;3.10;2.37;;;17.80;52.60;;;;;;5220218;28;20187;-50
2023/05/10 05:26:21;;;;;;;3.27;3.07;;;18.50;49.90;;;;;;5218830;28;20985;-49
2023/05/10 05:28:54;;;;;;;4.40;3.20;;;19.30;48.00;;;;;;5221363;28;20433;-50
2023/05/10 05:31:24;;;;;;;6.50;3.43;;;20.00;45.30;;;;;;5217319;28;20485;-49
2023/05/10 05:33:55;;;;;;;4.53;3.40;;;20.80;44.00;;;;;;5222025;28;20508;-49
2023/05/10 05:36:26;;;;;;;6.23;2.80;;;21.60;41.70;;;;;;5225596;28;20171;-48
2023/05/10 05:38:57;;;;;;;3.10;2.90;;;21.70;41.30;;;;;;5225343;28;20178;-50
2023/05/10 05:41:27;;;;;;;3.70;2.80;;;21.90;39.90;;;;;;5224892;28;20293;-50
2023/05/10 05:43:58;;;;;;;8.70;3.30;;;22.00;40.20;;;;;;5226410;28;20185;-49
2023/05/10 05:46:28;;;;;;;4.43;2.90;;;22.80;38.80;;;;;;5226623;28;20183;-50
2023/05/10 05:48:59;;;;;;;4.73;2.87;;;22.40;38.10;;;;;;5226159;28;20652;-50
2023/05/10 05:51:30;;;;;;;4.40;2.97;;;22.00;38.70;;;;;;5223409;28;20226;-50
2023/05/10 05:54:03;;;;;;;13.53;2.10;;;21.60;38.60;;;;;;5224455;28;20547;-52
2023/05/10 05:56:33;;;;;;;2.87;2.67;;;21.60;39.50;;;;;;5223147;28;20473;-50
2023/05/10 05:59:04;;;;;;;4.33;2.63;;;21.90;38.90;;;;;;5222650;28;20531;-51
2023/05/10 06:01:35;;;;;;;3.50;3.20;;;22.00;38.90;;;;;;5224840;28;20214;-51
2023/05/10 06:04:05;;;;;;;3.03;2.73;;;22.50;38.60;;;;;;5227897;28;20179;-49
2023/05/10 06:06:36;;;;;;;2.53;2.20;;;22.90;37.90;;;;;;5228403;28;20180;-51
2023/05/10 06:09:07;;;;;;;5.50;2.90;;;23.40;36.90;;;;;;5227259;28;20831;-50
2023/05/10 06:11:37;;;;;;;4.17;2.63;;;24.30;36.50;;;;;;5227643;28;20203;-50
2023/05/10 06:14:09;;;;;;;2.43;2.23;;;24.60;35.90;;;;;;5226884;28;20464;-50
2023/05/10 06:16:40;;;;;;;5.60;2.30;;;25.00;35.10;;;;;;5224976;28;20207;-50
2023/05/10 06:19:11;;;;;;;2.70;2.50;;;25.30;34.10;;;;;;5224417;28;20957;-50
2023/05/10 06:21:42;;;;;;;7.93;2.57;;;25.00;34.40;;;;;;5227134;28;20464;-49
2023/05/10 06:24:12;;;;;;;2.47;2.37;;;25.30;34.10;;;;;;5225573;28;20175;-51
2023/05/10 06:26:43;;;;;;;2.57;2.20;;;25.00;34.20;;;;;;5227712;28;20195;-50
2023/05/10 06:29:15;;;;;;;4.93;2.43;;;24.90;34.50;;;;;;5226967;28;20236;-50
2023/05/10 06:31:46;;;;;;;5.30;2.43;;;25.40;34.20;;;;;;5223106;28;20213;-51
2023/05/10 06:34:16;;;;;;;5.40;2.40;;;26.10;32.60;;;;;;5226877;28;20445;-49
2023/05/10 06:36:47;;;;;;;2.93;2.20;;;25.60;32.90;;;;;;5224405;28;20461;-51
2023/05/10 06:39:18;;;;;;;3.13;2.50;;;25.30;33.40;;;;;;5221576;28;20187;-52
2023/05/10 06:41:48;;;;;;;2.80;2.50;;;25.10;33.50;;;;;;5220218;28;20191;-50
2023/05/10 06:44:19;;;;;;;3.37;2.00;;;24.90;34.00;;;;;;5220473;28;20188;-52
2023/05/10 06:46:49;;;;;;;4.33;3.37;;;25.20;34.00;;;;;;5219984;28;20187;-52
2023/05/10 06:49:20;;;;;;;3.83;1.77;;;25.50;33.40;;;;;;5220564;28;20190;-53
2023/05/10 06:51:51;;;;;;;3.83;2.30;;;25.50;33.50;;;;;;5217212;28;20265;-51
2023/05/10 06:54:22;;;;;;;2.50;2.30;;;26.50;32.60;;;;;;5219892;28;20206;-50
2023/05/10 06:56:53;;;;;;;5.87;2.80;;;27.60;31.30;;;;;;5227185;28;20465;-50
2023/05/10 06:59:24;;;;;;;3.50;2.40;;;28.60;30.00;;;;;;5219931;28;20441;-50
2023/05/10 07:01:54;;;;;;;3.43;2.37;;;29.10;29.20;;;;;;5222395;28;20282;-52
2023/05/10 07:04:25;;;;;;;2.53;1.80;;;28.90;29.10;;;;;;5223074;28;20190;-51
2023/05/10 07:06:56;;;;;;;8.57;2.00;;;29.90;28.90;;;;;;5221173;28;20183;-50
2023/05/10 07:09:27;;;;;;;2.40;2.20;;;29.80;28.30;;;;;;5221555;28;20192;-50
2023/05/10 07:11:57;;;;;;;1.90;1.80;;;29.80;28.30;;;;;;5225349;28;20576;-51
2023/05/10 07:14:28;;;;;;;3.97;2.33;;;30.20;28.20;;;;;;5223435;28;20201;-50
2023/05/10 07:16:58;;;;;;;2.23;2.10;;;29.80;27.90;;;;;;5221669;28;20203;-49
2023/05/10 07:19:29;;;;;;;2.73;2.50;;;29.30;28.10;;;;;;5221092;28;20195;-50
2023/05/10 07:22:00;;;;;;;2.03;1.97;;;27.90;29.20;;;;;;5223634;28;20203;-49
2023/05/10 07:24:32;;;;;;;3.87;2.23;;;27.20;30.00;;;;;;5219109;28;20248;-51
2023/05/10 07:27:04;;;;;;;2.17;1.70;;;26.30;31.00;;;;;;5224917;28;20558;-48
2023/05/10 07:29:35;;;;;;;3.83;3.10;;;26.90;31.30;;;;;;5227328;28;20421;-50
2023/05/10 07:32:06;;;;;;;4.43;2.37;;;27.90;30.40;;;;;;5222089;28;20441;-50
2023/05/10 07:34:36;;;;;;;2.30;2.20;;;28.60;29.80;;;;;;5221384;28;20520;-51
2023/05/10 07:37:07;;;;;;;1.90;1.80;;;28.50;28.80;;;;;;5220044;28;20214;-49
2023/05/10 07:39:38;;;;;;;3.87;2.43;;;28.80;28.90;;;;;;5221060;28;20187;-49
2023/05/10 07:42:09;;;;;;;6.33;1.80;;;29.10;29.30;;;;;;5225084;28;21739;-49
2023/05/10 07:44:39;;;;;;;4.20;2.63;;;30.20;28.10;;;;;;5224168;28;20316;-53
2023/05/10 07:47:10;;;;;;;2.23;2.13;;;30.10;27.80;;;;;;5221823;28;20187;-50
2023/05/10 07:49:41;;;;;;;3.00;2.30;;;30.00;27.90;;;;;;5224246;28;20190;-50
2023/05/10 07:52:11;;;;;;;2.40;1.93;;;29.30;28.10;;;;;;5221806;28;20450;-50
2023/05/10 07:54:42;;;;;;;2.33;2.23;;;27.80;29.20;;;;;;5222365;28;20183;-50
2023/05/10 07:57:15;;;;;;;4.70;2.30;;;26.70;30.50;;;;;;5218182;28;20239;-51
2023/05/10 07:59:46;;;;;;;9.13;2.23;;;25.80;31.80;;;;;;5219910;28;20523;-50
2023/05/10 08:02:17;;;;;;;7.60;1.97;;;26.60;31.80;;;;;;5222276;28;20445;-50
2023/05/10 08:04:47;;;;;;;4.63;2.57;;;27.00;30.80;;;;;;5221037;28;20429;-50
2023/05/10 08:07:18;;;;;;;3.47;3.17;;;26.70;31.10;;;;;;5222225;28;20187;-51
2023/05/10 08:09:48;;;;;;;5.90;2.60;;;26.70;32.00;;;;;;5218136;28;20605;-49
2023/05/10 08:12:19;;;;;;;2.80;2.60;;;27.20;31.00;;;;;;5221458;28;20191;-54
2023/05/10 08:14:50;;;;;;;2.50;2.10;;;26.30;31.70;;;;;;5216080;28;20188;-51
2023/05/10 08:17:22;;;;;;;2.97;2.77;;;26.90;32.00;;;;;;5223710;28;20218;-50
2023/05/10 08:19:52;;;;;;;8.23;2.40;;;28.10;30.00;;;;;;5217808;28;20194;-50
2023/05/10 08:22:23;;;;;;;3.10;2.40;;;27.90;30.00;;;;;;5222473;28;20438;-50
2023/05/10 08:24:54;;;;;;;2.83;2.27;;;28.30;29.90;;;;;;5223273;28;20187;-50
2023/05/10 08:27:24;;;;;;;4.03;3.00;;;27.20;30.30;;;;;;5221066;28;20199;-50
2023/05/10 08:29:55;;;;;;;2.30;2.10;;;26.10;32.50;;;;;;5219963;28;20186;-51
2023/05/10 08:32:25;;;;;;;2.97;2.77;;;24.90;34.10;;;;;;5219758;28;20264;-49
2023/05/10 08:34:56;;;;;;;2.17;2.13;;;24.00;35.20;;;;;;5222721;28;20495;-50
2023/05/10 08:37:30;;;;;;;2.33;2.10;;;23.50;36.20;;;;;;5221771;28;20218;-50
2023/05/10 08:40:00;;;;;;;2.60;2.27;;;22.70;37.00;;;;;;5222320;28;20198;-49
2023/05/10 08:42:35;;;;;;;2.73;2.53;;;21.90;38.60;;;;;;5220492;28;20445;-50
2023/05/10 08:45:11;;;;;;;4.40;1.73;;;22.10;39.00;;;;;;5205121;28;20187;-50
2023/05/10 08:47:42;;;;;;;2.00;1.90;;;22.70;38.60;;;;;;5224551;28;20436;-50
2023/05/10 08:50:14;;;;;;;2.40;2.23;;;23.50;37.40;;;;;;5220794;28;20465;-49
2023/05/10 08:52:48;;;;;;;3.27;2.10;;;23.60;36.90;;;;;;5223823;28;20441;-51
2023/05/10 08:55:19;;;;;;;2.00;1.90;;;22.60;37.50;;;;;;5218617;28;21003;-50
2023/05/10 08:57:49;;;;;;;4.03;2.43;;;22.00;39.20;;;;;;5223982;28;20560;-51
2023/05/10 09:00:22;;;;;;;6.43;2.10;;;21.80;39.40;;;;;;5201959;28;20535;-52
2023/05/10 09:02:53;;;;;;;4.53;3.20;;;21.20;39.70;;;;;;5223044;28;20232;-49
2023/05/10 09:05:25;;;;;;;2.13;1.93;;;20.70;40.40;;;;;;5221952;28;20933;-49
2023/05/10 09:07:55;;;;;;;3.63;2.50;;;20.40;40.70;;;;;;5222170;28;20437;-48
2023/05/10 09:10:27;;;;;;;2.20;2.10;;;20.10;41.70;;;;;;5223110;28;20461;-49
2023/05/10 09:12:58;;;;;;;2.23;2.03;;;19.70;42.10;;;;;;5217561;28;20183;-49
2023/05/10 09:15:29;;;;;;;2.20;2.07;;;19.60;42.20;;;;;;5222038;28;20441;-49
2023/05/10 09:18:02;;;;;;;2.10;2.03;;;19.60;42.60;;;;;;5222937;28;20209;-48
2023/05/10 09:20:32;;;;;;;2.47;2.27;;;19.80;42.70;;;;;;5220064;28;20545;-48
2023/05/10 09:23:03;;;;;;;7.50;2.50;;;20.10;42.60;;;;;;5226477;28;20433;-50
2023/05/10 09:25:34;;;;;;;2.87;2.10;;;20.20;41.60;;;;;;5218931;28;20237;-50
2023/05/10 09:28:09;;;;;;;6.93;2.60;;;19.90;42.00;;;;;;5220380;28;20183;-49
2023/05/10 09:30:40;;;;;;;2.80;2.33;;;19.90;42.80;;;;;;5221658;28;21979;-49
2023/05/10 09:33:10;;;;;;;2.47;2.13;;;19.80;41.90;;;;;;5221074;28;20453;-49
2023/05/10 09:35:42;;;;;;;3.27;2.63;;;19.60;42.60;;;;;;5223134;28;20711;-49
2023/05/10 09:38:12;;;;;;;11.07;3.00;;;19.70;42.80;;;;;;5220335;28;20297;-48
2023/05/10 09:40:54;;;;;;;4.67;2.70;;;20.00;42.70;;;;;;5238960;28;20587;-49
2023/05/10 09:43:25;;;;;;;2.53;2.33;;;20.10;42.20;;;;;;5219875;28;20190;-49
2023/05/10 09:45:55;;;;;;;2.53;2.30;;;20.10;42.50;;;;;;5215521;28;20783;-49
2023/05/10 09:48:26;;;;;;;3.13;2.00;;;20.20;42.10;;;;;;5216492;28;20639;-50
2023/05/10 09:50:57;;;;;;;2.43;2.23;;;20.10;41.90;;;;;;5220749;28;20219;-48
2023/05/10 09:53:28;;;;;;;2.80;2.30;;;20.10;42.50;;;;;;5219085;28;20195;-49
2023/05/10 09:55:58;;;;;;;2.23;2.13;;;20.20;42.40;;;;;;5217786;28;20507;-49
2023/05/10 09:58:29;;;;;;;3.13;2.47;;;20.40;42.80;;;;;;5218837;28;20210;-50
2023/05/10 10:01:00;;;;;;;3.27;1.80;;;20.60;42.60;;;;;;5219350;28;20295;-49
2023/05/10 10:03:30;;;;;;;1.93;1.83;;;20.60;42.40;;;;;;5221446;28;20209;-50
2023/05/10 10:06:01;;;;;;;8.40;2.20;;;20.60;42.20;;;;;;5217648;28;20176;-49
2023/05/10 10:08:32;;;;;;;6.53;2.43;;;20.60;41.90;;;;;;5220478;28;20209;-49
2023/05/10 10:11:02;;;;;;;3.10;2.70;;;20.30;41.90;;;;;;5217482;28;20206;-49
2023/05/10 10:13:33;;;;;;;8.87;2.23;;;20.30;41.70;;;;;;5216392;28;20206;-48
2023/05/10 10:16:04;;;;;;;2.13;2.10;;;20.30;42.40;;;;;;5218861;28;20187;-49
2023/05/10 10:18:38;;;;;;;2.60;2.40;;;20.40;42.40;;;;;;5222874;28;20238;-48
2023/05/10 10:21:09;;;;;;;2.87;2.67;;;20.40;41.80;;;;;;5219530;28;20434;-49
2023/05/10 10:23:40;;;;;;;2.53;2.37;;;20.30;42.10;;;;;;5223679;28;20867;-51
2023/05/10 10:26:11;;;;;;;2.47;1.83;;;20.40;42.60;;;;;;5221768;28;20175;-50
2023/05/10 10:28:49;;;;;;;1.93;1.77;;;20.40;42.10;;;;;;5223513;28;20187;-48
2023/05/10 10:31:27;;;;;;;3.70;2.30;;;20.30;42.00;;;;;;5219249;28;20239;-52
2023/05/10 10:34:07;;;;;;;3.37;2.30;;;20.40;42.80;;;;;;5224366;28;20529;-49
2023/05/10 10:36:45;;;;;;;2.33;2.23;;;20.30;42.80;;;;;;5225804;28;20444;-48
2023/05/10 10:39:16;;;;;;;4.07;3.13;;;20.20;43.00;;;;;;5221901;28;20522;-48
2023/05/10 10:41:52;;;;;;;1.80;1.70;;;20.40;42.80;;;;;;5223923;28;21039;-48
2023/05/10 10:44:25;;;;;;;2.47;2.27;;;20.60;42.70;;;;;;5221518;28;20518;-54
2023/05/10 10:47:09;;;;;;;2.33;2.13;;;20.60;42.40;;;;;;5225830;28;20433;-48
2023/05/10 10:50:02;;;;;;;2.93;2.20;;;20.50;42.30;;;;;;5221313;28;20452;-48
2023/05/10 10:52:34;;;;;;;2.70;2.10;;;20.60;42.80;;;;;;5221631;28;20493;-49
2023/05/10 10:55:07;;;;;;;2.00;1.90;;;20.70;42.40;;;;;;5221633;28;20795;-48
2023/05/10 10:57:48;;;;;;;2.93;2.60;;;20.80;41.90;;;;;;5222436;28;20556;-49
2023/05/10 11:00:26;;;;;;;2.70;2.60;;;20.60;41.10;;;;;;5222698;28;20487;-51
2023/05/10 11:02:59;;;;;;;2.10;1.90;;;20.50;41.90;;;;;;5224517;28;20429;-49
2023/05/10 11:05:35;;;;;;;1.97;1.80;;;20.40;42.00;;;;;;5220586;28;20436;-49
2023/05/10 11:08:08;;;;;;;4.23;2.83;;;20.50;42.20;;;;;;5224234;28;20437;-50
2023/05/10 11:10:48;;;;;;;2.60;2.40;;;20.60;42.70;;;;;;5222074;28;21247;-48
2023/05/10 11:13:29;;;;;;;2.27;2.17;;;20.90;42.60;;;;;;5221409;28;20502;-48
2023/05/10 11:16:10;;;;;;;2.50;2.40;;;21.20;42.30;;;;;;5220851;28;21015;-48
2023/05/10 11:19:01;;;;;;;2.33;2.13;;;21.30;41.50;;;;;;5224358;28;20751;-49
2023/05/10 11:21:33;;;;;;;2.80;2.03;;;21.20;41.20;;;;;;5218513;28;20454;-48
2023/05/10 11:24:13;;;;;;;2.60;2.40;;;21.10;41.40;;;;;;5224952;28;20882;-49
2023/05/10 11:26:44;;;;;;;9.63;1.97;;;20.90;41.90;;;;;;5220578;28;20433;-48
2023/05/10 11:29:16;;;;;;;4.90;2.63;;;21.00;41.90;;;;;;5216294;28;20510;-50
2023/05/10 11:31:48;;;;;;;2.10;2.00;;;21.20;41.70;;;;;;5223221;28;20245;-49
2023/05/10 11:34:30;;;;;;;2.17;2.10;;;21.40;41.60;;;;;;5223963;28;20449;-50
2023/05/10 11:37:01;;;;;;;2.43;2.10;;;21.50;41.70;;;;;;5214700;28;20808;-49
2023/05/10 11:39:33;;;;;;;2.63;2.27;;;21.60;41.60;;;;;;5223373;28;20436;-49
2023/05/10 11:42:04;;;;;;;2.30;2.20;;;21.70;41.20;;;;;;5218478;28;20231;-48
2023/05/10 11:44:34;;;;;;;3.83;2.40;;;21.70;40.80;;;;;;5219019;28;20881;-49
2023/05/10 11:47:05;;;;;;;2.00;1.90;;;21.50;41.20;;;;;;5222548;28;20639;-49
2023/05/10 11:49:38;;;;;;;3.10;1.87;;;21.60;41.40;;;;;;5222598;28;20498;-51
2023/05/10 11:52:11;;;;;;;4.33;2.73;;;21.70;41.40;;;;;;5204988;28;20293;-48
2023/05/10 11:54:54;;;;;;;2.00;1.90;;;21.70;40.60;;;;;;5221106;28;20462;-49
2023/05/10 11:57:28;;;;;;;2.63;2.43;;;21.70;41.20;;;;;;5223614;28;20461;-49
2023/05/10 11:59:59;;;;;;;1.43;1.43;;;21.70;41.80;;;;;;5221062;28;20449;-49
2023/05/10 12:02:30;;;;;;;3.53;2.07;;;21.90;41.10;;;;;;5220133;28;20429;-49
2023/05/10 12:05:01;;;;;;;3.60;2.20;;;22.10;40.20;;;;;;5220825;28;20210;-52
2023/05/10 12:07:32;;;;;;;8.57;2.30;;;22.30;40.50;;;;;;5220423;28;21001;-49
2023/05/10 12:10:08;;;;;;;2.57;2.37;;;22.50;40.00;;;;;;5244392;22;20469;-52
2023/05/10 12:12:44;;;;;;;2.20;2.10;;;22.60;39.70;;;;;;5199247;28;20196;-51
2023/05/10 12:15:21;;;;;;;7.20;2.00;;;22.70;39.40;;;;;;5201790;28;20442;-51
2023/05/10 12:17:51;;;;;;;5.20;2.27;;;22.80;39.50;;;;;;5218707;28;20525;-50
2023/05/10 12:20:24;;;;;;;1.93;1.83;;;22.60;39.60;;;;;;5213070;28;21048;-50
2023/05/10 12:22:57;;;;;;;1.53;1.53;;;22.30;38.60;;;;;;5204068;28;20194;-52
2023/05/10 12:25:35;;;;;;;4.77;1.77;;;22.20;39.20;;;;;;5203579;28;20434;-52
2023/05/10 12:28:09;;;;;;;2.93;2.03;;;22.20;39.70;;;;;;5205319;28;21240;-51
2023/05/10 12:30:39;;;;;;;5.03;2.30;;;22.50;38.90;;;;;;5206634;28;20450;-52
2023/05/10 12:33:13;;;;;;;2.03;1.93;;;22.50;38.70;;;;;;5206513;28;20446;-52
2023/05/10 12:35:46;;;;;;;3.80;2.30;;;22.60;38.60;;;;;;5190816;28;20226;-52
2023/05/10 12:38:29;;;;;;;4.00;1.83;;;22.80;38.90;;;;;;5204570;28;20462;-52
2023/05/10 12:41:02;;;;;;;2.00;1.90;;;22.90;37.90;;;;;;5201368;28;20460;-50
2023/05/10 12:43:34;;;;;;;2.43;2.07;;;22.90;37.40;;;;;;5218493;28;20811;-51
2023/05/10 12:46:15;;;;;;;2.43;2.23;;;22.90;37.20;;;;;;5205422;28;20533;-50
2023/05/10 12:48:49;;;;;;;4.33;1.97;;;22.90;37.70;;;;;;5204910;28;20418;-50
2023/05/10 12:51:21;;;;;;;7.40;1.93;;;22.90;38.30;;;;;;5201966;28;20700;-51
2023/05/10 12:53:52;;;;;;;2.17;2.07;;;22.90;38.00;;;;;;5202955;28;20852;-51
2023/05/10 12:56:23;;;;;;;2.10;1.90;;;22.90;38.20;;;;;;5202457;28;20450;-50
2023/05/10 12:58:53;;;;;;;2.30;2.20;;;22.90;38.50;;;;;;5199396;28;20277;-51
2023/05/10 13:01:24;;;;;;;2.20;2.10;;;23.00;38.40;;;;;;5203757;28;20207;-52
2023/05/10 13:03:54;;;;;;;2.40;2.30;;;23.00;37.70;;;;;;5202721;28;20207;-51
2023/05/10 13:06:25;;;;;;;2.47;2.00;;;23.10;37.70;;;;;;5204405;28;20282;-53
2023/05/10 13:08:57;;;;;;;1.93;1.83;;;23.20;37.30;;;;;;5204179;28;20192;-51
2023/05/10 13:11:28;;;;;;;2.03;1.93;;;23.20;36.60;;;;;;5196217;28;20219;-51
2023/05/10 13:13:58;;;;;;;3.57;2.90;;;23.20;36.90;;;;;;5200399;28;20500;-50
2023/05/10 13:16:29;;;;;;;1.90;1.80;;;23.20;37.50;;;;;;5204724;28;20183;-51